Home > Products > Valid Products > TAF

000
FTUS41 KBTV 252320
TAFMSS
TAF
KMSS 252320Z 2600/2624 27006KT P6SM SKC
     FM260200 VRB02KT P6SM SKC
     FM260800 05004KT P6SM BKN200
     FM261900 04010KT P6SM BKN120=



000
FTUS41 KBTV 252320
TAFBTV
TAF
KBTV 252320Z 2600/2624 04008KT P6SM SKC
     FM260400 VRB02KT P6SM SCT200
     FM261800 04004KT P6SM BKN120=



000
FTUS41 KBTV 252320
TAFMPV
TAF
KMPV 252320Z 2600/2624 32008KT P6SM SKC
     FM260500 00000KT P6SM SCT200
     FM261200 VRB03KT P6SM BKN200
     FM261800 09004KT P6SM BKN120=



000
FTUS41 KBTV 252320
TAFSLK
TAF
KSLK 252320Z 2600/2624 VRB03KT P6SM SKC
     FM260400 00000KT P6SM SCT200
     FM261500 VRB04KT P6SM BKN150=



000
FTUS41 KBTV 252124 AAB
TAFBTV
TAF AMD
KBTV 252124Z 2521/2618 36008KT P6SM SCT035
     FM252300 35007KT P6SM SKC
     FM260500 VRB03KT P6SM SKC
     FM261200 04004KT P6SM BKN200=



000
FTUS41 KBTV 252112 AAA
TAFSLK
TAF AMD
KSLK 252112Z 2521/2618 25005KT P6SM SKC
     FM260000 VRB03KT P6SM SKC
     FM261200 05004KT P6SM BKN150 BKN200=



000
FTUS41 KBTV 251736
TAFSLK
TAF
KSLK 251736Z 2518/2618 27008KT P6SM OVC023
     FM252200 25003KT P6SM SCT025
     FM260000 VRB03KT P6SM SKC
     FM261200 05004KT P6SM BKN150 BKN200=



000
FTUS41 KBTV 251736
TAFMSS
TAF
KMSS 251736Z 2518/2618 29009KT P6SM FEW025
     FM252200 27006KT P6SM SKC
     FM260200 VRB03KT P6SM SKC
     FM261200 05006KT P6SM BKN200=



000
FTUS41 KBTV 251736
TAFBTV
TAF
KBTV 251736Z 2518/2618 32014G20KT P6SM BKN035
     FM252300 33007KT P6SM SKC
     FM260500 VRB03KT P6SM SKC
     FM261200 04004KT P6SM BKN200=



000
FTUS41 KBTV 251736
TAFMPV
TAF
KMPV 251736Z 2518/2618 32014KT P6SM BKN030
      TEMPO 2518/2522 BKN035
     FM252200 32008KT P6SM SCT035
     FM260100 33004KT P6SM SKC
     FM261200 VRB03KT P6SM BKN200=



000
FTUS41 KBTV 251437 AAA
TAFSLK
TAF AMD
KSLK 251437Z 2515/2612 27010KT 6SM -SN OVC017
      TEMPO 2515/2518 4SM -SN OVC020
     FM251800 27006KT P6SM BKN025 BKN035
     FM252000 25005KT P6SM SKC=



000
FTUS41 KBTV 251427 AAA
TAFMPV
TAF AMD
KMPV 251427Z 2514/2612 30015G25KT 3SM -SN OVC023
      TEMPO 2514/2518 2SM -SN OVC020
     FM251800 31013G20KT P6SM SCT025 BKN040
     FM252200 32007KT P6SM SKC=



000
FTUS41 KBTV 251422 AAA
TAFBTV
TAF AMD
KBTV 251422Z 2514/2612 34014G20KT P6SM BKN027 BKN040
      TEMPO 2514/2518 SCT025 BKN040
     FM251800 33011G19KT P6SM BKN040
     FM252100 33009KT P6SM SKC=



000
FTUS41 KBTV 251138
TAFSLK
TAF
KSLK 251138Z 2512/2612 28011G17KT 2SM -SN BR SCT008 BKN015
     FM251300 27010KT 4SM -SN BR SCT015 OVC025
     FM251600 26008KT P6SM BKN035
     FM252000 25005KT P6SM SKC=



000
FTUS41 KBTV 251138
TAFMPV
TAF
KMPV 251138Z 2512/2612 29010G18KT 3SM -SN BR SCT015 OVC025
     FM251300 31013G23KT P6SM BKN025
     FM251500 31013G20KT P6SM SCT025 BKN040
     FM252200 32007KT P6SM SKC=



000
FTUS41 KBTV 251138
TAFMSS
TAF
KMSS 251138Z 2512/2612 29010G18KT P6SM SCT035
     FM251600 27009KT P6SM SKC=



000
FTUS41 KBTV 251138
TAFBTV
TAF
KBTV 251138Z 2512/2612 32014G24KT P6SM FEW025 BKN040
     FM251500 33011G19KT P6SM BKN035
     FM252100 33009KT P6SM SKC=



000
FTUS41 KBTV 250531
TAFBTV
TAF
KBTV 250531Z 2506/2606 26006KT 5SM -SN BR OVC025
     FM250900 31010G18KT 3SM -SN BR SCT012 OVC025
     FM251200 32014G24KT P6SM FEW025 BKN040
     FM251500 33011G19KT P6SM BKN035
     FM252100 33009KT P6SM SKC=



000
FTUS41 KBTV 250531
TAFMSS
TAF
KMSS 250531Z 2506/2606 29012KT 4SM -SN BR BKN012 OVC022
      TEMPO 2506/2509 1 1/2SM -SN BR VV012
     FM250900 29015G25KT P6SM SCT015 OVC035
     FM251200 29010G18KT P6SM SCT035
     FM251600 27009KT P6SM SKC=



000
FTUS41 KBTV 250531
TAFSLK
TAF
KSLK 250531Z 2506/2606 27009KT 2SM -SN BR SCT008 OVC015
      TEMPO 2506/2510 3/4SM -SN BR VV008
     FM251000 28011G17KT 2SM -SN BR SCT008 BKN015
     FM251300 27010KT 4SM -SN BR SCT015 OVC025
     FM251600 26008KT P6SM BKN035
     FM252000 25005KT P6SM SKC=



000
FTUS41 KBTV 250531
TAFMPV
TAF
KMPV 250531Z 2506/2606 27005KT 4SM -SN BR OVC018
     FM251000 29010G18KT 3SM -SN BR SCT015 OVC025
     FM251300 31013G23KT P6SM BKN025
     FM251500 31013G20KT P6SM SCT025 BKN040
     FM252200 32007KT P6SM SKC=



000
FTUS41 KBTV 250345 AAA
TAFSLK
TAF AMD
KSLK 250345Z 2504/2524 25006KT P6SM -SHSN OVC008
     FM250600 27009KT 2SM -SN BR OVC008
     FM251200 26008KT P6SM -SHSN BKN035
     FM251900 27006KT 4SM BR SKC=



000
FTUS41 KBTV 250345 AAA
TAFSLK
TAF AMD
KSLK 250345Z 2504/2524 25006KT P6SM -SHSN OVC008
     FM250600 27009KT 2SM -SN BR OVC008
     FM251200 26008KT P6SM -SHSN BKN035
     FM251900 27006KT 4SM BR SKC=



000
FTUS41 KBTV 250342 AAA
TAFMSS
TAF AMD
KMSS 250342Z 2504/2524 23010KT 5SM -SN BR OVC012
     FM250600 29015G25KT 2SM -SN BR OVC015
     FM250900 29015G25KT P6SM BKN035
     FM251200 28012G20KT P6SM SKC
     FM252100 27009KT P6SM SKC=



000
FTUS41 KBTV 250330 AAA
TAFMPV
TAF AMD
KMPV 250330Z 2504/2524 32007KT 4SM -SHSN BR SCT020 OVC045
      TEMPO 2504/2507 2SM -SHSN OVC020
     FM250900 30010KT 2SM -SHSN BR OVC020
     FM251300 32014G20KT P6SM BKN035
     FM252100 31011KT P6SM SKC=



000
FTUS41 KBTV 250211 AAB
TAFBTV
TAF AMD
KBTV 250211Z 2502/2524 34005KT 4SM -SHSN OVC025
     FM250900 31012G20KT 2SM -SHSN BR OVC020
     FM251200 32014G24KT P6SM BKN035
     FM252200 33008KT P6SM SKC=



000
FTUS41 KBTV 250106 AAA
TAFBTV
TAF AMD
KBTV 250106Z 2501/2524 34005KT P6SM -FZDZ OVC025
     FM250300 34007KT 5SM -SHSN BR OVC025
     FM250900 31012G20KT 2SM -SN BR OVC020
     FM251200 32014G24KT P6SM BKN035
     FM252200 33008KT P6SM SKC=



000
FTUS41 KBTV 242339
TAFBTV
TAF
KBTV 242339Z 2500/2524 34008KT P6SM OVC040
     FM250900 31012G20KT 2SM -SN BR OVC035
     FM251200 32014G24KT P6SM BKN035
     FM252200 33008KT P6SM SKC=



000
FTUS41 KBTV 242339
TAFMSS
TAF
KMSS 242339Z 2500/2524 23009KT 2SM -SHSN BR OVC012
     FM250400 25014G20KT 2SM -SN BR OVC012
     FM250600 29015G25KT 2SM -SN BR OVC015
     FM250900 29015G25KT P6SM BKN035
     FM251200 28012G20KT P6SM SKC
     FM252100 27009KT P6SM SKC=



000
FTUS41 KBTV 242339
TAFSLK
TAF
KSLK 242339Z 2500/2524 27065KT P6SM -SHSN BKN012 OVC020
     FM250600 27009KT 2SM -SN BR OVC018
     FM251200 26008KT P6SM -SHSN BKN035
     FM251900 27006KT 4SM BR SKC=



000
FTUS41 KBTV 242339
TAFMPV
TAF
KMPV 242339Z 2500/2524 VRB03KT P6SM BKN150
     FM250200 27005KT P6SM -SHSN OVC050
     FM250900 30010KT 2SM -SN BR OVC020
     FM251300 32014G20KT P6SM BKN035
     FM252100 31011KT P6SM SKC=



000
FTUS41 KBTV 242157 AAA
TAFSLK
TAF AMD
KSLK 242157Z 2422/2518 26007KT P6SM BKN025 OVC090
     FM250000 26005KT P6SM -SHSN OVC020
     FM250600 27009KT 2SM -SN BR OVC018
     FM251200 26008KT P6SM -SHSN BKN035=



000
FTUS41 KBTV 242122 AAB
TAFBTV
TAF AMD
KBTV 242122Z 2421/2518 32008KT P6SM SCT100
     FM250300 28005KT P6SM -SHSN OVC035
     FM250900 31012G20KT 2SM -SN BR OVC020
     FM251200 32014G24KT P6SM BKN035=



000
FTUS41 KBTV 242002 AAA
TAFMSS
TAF AMD
KMSS 242002Z 2420/2518 22012KT P6SM OVC018
     FM250000 23009KT P6SM -SHSN OVC018
     FM250400 25014G20KT 2SM -SN BR OVC015
     FM250600 29015G25KT 2SM -SN BR OVC015
     FM250900 29015G25KT P6SM BKN035
     FM251200 28012G20KT P6SM SKC=



000
FTUS41 KBTV 241952 AAA
TAFMPV
TAF AMD
KMPV 241952Z 2420/2518 VRB03KT P6SM BKN150 BKN200
     FM250200 27005KT P6SM -SHSN OVC050
     FM250900 30010KT 2SM -SN BR OVC020
     FM251300 32014G20KT P6SM BKN035=



000
FTUS41 KBTV 241737
TAFMPV
TAF
KMPV 241737Z 2418/2518 VRB03KT 6SM HZ OVC130
     FM250200 27005KT P6SM -SHSN OVC050
     FM250900 30010KT 2SM -SN BR OVC020
     FM251300 32014G20KT P6SM BKN035=



000
FTUS41 KBTV 241737
TAFMSS
TAF
KMSS 241737Z 2418/2518 23009KT P6SM OVC020
     FM250000 23009KT P6SM -SHSN OVC018
     FM250400 25014G20KT 2SM -SN BR OVC015
     FM250600 29015G25KT 2SM -SN BR OVC015
     FM250900 29015G25KT P6SM BKN035
     FM251200 28012G20KT P6SM SKC=



000
FTUS41 KBTV 241737
TAFSLK
TAF
KSLK 241737Z 2418/2518 23007KT P6SM BKN150 BKN200
     FM250000 23005KT P6SM -SHSN OVC050
     FM250600 27009KT 2SM -SN BR OVC018
     FM251200 26008KT P6SM -SHSN BKN035=



000
FTUS41 KBTV 241737
TAFBTV
TAF
KBTV 241737Z 2418/2518 19008KT P6SM SCT090 BKN150
     FM242200 29006KT P6SM SCT090 BKN200
     FM250100 28005KT P6SM -SHSN OVC035
     FM250900 31012G20KT 2SM -SN BR OVC020
     FM251200 32014G24KT P6SM BKN035=



000
FTUS41 KBTV 241459 AAA
TAFMSS
TAF AMD
KMSS 241459Z 2415/2512 22012KT P6SM OVC020
     FM242200 23010G18KT P6SM VCSH BKN050 OVC080
     FM250200 24012G22KT P6SM VCSH BKN025 OVC040
     FM250500 29015G24KT P6SM SCT025=



000
FTUS41 KBTV 241131
TAFMPV
TAF
KMPV 241131Z 2412/2512 VRB03KT P6SM BKN150 OVC250
     FM242200 32004KT P6SM SCT090 OVC150
     FM250400 VRB03KT P6SM OVC022
     FM250900 31009G18KT P6SM VCSH BKN022 OVC035=



000
FTUS41 KBTV 241131
TAFMSS
TAF
KMSS 241131Z 2412/2512 22012KT P6SM BKN018 BKN250
     FM242200 23010G18KT P6SM VCSH BKN050 OVC080
     FM250200 24012G22KT P6SM VCSH BKN025 OVC040
     FM250500 29015G24KT P6SM SCT025=



000
FTUS41 KBTV 241131
TAFSLK
TAF
KSLK 241131Z 2412/2512 21006KT P6SM SCT150 BKN250
     FM242000 23006KT P6SM OVC018
     FM250200 24007G14KT P6SM VCSH OVC015
     FM250600 26011G19KT P6SM VCSH SCT015 OVC025=



000
FTUS41 KBTV 241131
TAFBTV
TAF
KBTV 241131Z 2412/2512 18007KT P6SM SCT150 BKN250
     FM242200 30004KT P6SM BKN050
     FM250400 25005KT P6SM OVC025
     FM250800 33012G22KT P6SM VCSH BKN025 OVC040=



000
FTUS41 KBTV 240533
TAFSLK
TAF
KSLK 240533Z 2406/2506 23008KT P6SM SCT250
     FM241200 22006KT P6SM SCT150 BKN250
     FM242200 24006KT P6SM SCT025 OVC040
     FM250100 25007KT P6SM VCSH OVC025=



000
FTUS41 KBTV 240533
TAFMPV
TAF
KMPV 240533Z 2406/2506 18004KT P6SM BKN250
     FM241500 VRB03KT P6SM BKN150 OVC250
     FM250000 32005KT P6SM BKN050 OVC150=



000
FTUS41 KBTV 240533
TAFBTV
TAF
KBTV 240533Z 2406/2506 18006KT P6SM SCT250
     FM241200 18007KT P6SM BKN250
     FM242200 30005KT P6SM BKN050=



000
FTUS41 KBTV 240533
TAFMSS
TAF
KMSS 240533Z 2406/2506 22010KT P6SM SCT015 SCT250
      TEMPO 2406/2410 BKN015
     FM241500 23009KT P6SM BKN250
     FM242200 24012G21KT P6SM VCSH BKN050 OVC080=



000
FTUS41 KBTV 240405 AAA
TAFMSS
TAF AMD
KMSS 240405Z 2404/2424 22010KT P6SM SCT200
     FM242200 23008KT P6SM VCSH SCT025 OVC035=



000
FTUS41 KBTV 232320
TAFBTV
TAF
KBTV 232320Z 2400/2424 19014G23KT P6SM SCT120
     FM240300 19010KT P6SM SKC
     FM241300 19007KT P6SM SCT200=



000
FTUS41 KBTV 232320
TAFMSS
TAF
KMSS 232320Z 2400/2424 23014G28KT P6SM OVC025
     FM240400 23012KT P6SM VCSH OVC025
     FM241400 21009KT P6SM OVC025
     FM242000 VRB04KT P6SM SCT025 OVC035=



000
FTUS41 KBTV 232320
TAFMPV
TAF
KMPV 232320Z 2400/2424 21010KT P6SM SKC
     FM240800 20006KT P6SM BKN200
     FM241600 VRB03KT P6SM SCT025 BKN150=



000
FTUS41 KBTV 232320
TAFSLK
TAF
KSLK 232320Z 2400/2424 23011KT P6SM SCT200 WS020/23040KT
     FM241500 21005KT P6SM SCT150=



000
FTUS41 KBTV 232109 AAB
TAFSLK
TAF AMD
KSLK 232109Z 2321/2418 23011KT P6SM SCT020
     FM240600 23009KT P6SM BKN015
     FM241500 21005KT P6SM OVC015=



000
FTUS41 KBTV 232018 AAA
TAFSLK
TAF AMD
KSLK 232018Z 2320/2418 23014G20KT P6SM BKN017
     FM240000 23009KT P6SM BKN015
     FM241500 21005KT P6SM OVC015=



000
FTUS41 KBTV 232015 AAA
TAFMSS
TAF AMD
KMSS 232015Z 2320/2418 22020G30KT P6SM SCT025 BKN110
      TEMPO 2320/2324 BKN025 BKN110
     FM240000 23014G20KT P6SM BKN025 OVC120
     FM240600 23010KT P6SM OVC025
     FM241400 21009KT P6SM OVC025=



000
FTUS41 KBTV 231942 AAA
TAFBTV
TAF AMD
KBTV 231942Z 2320/2418 19014KT P6SM FEW040 BKN120
     FM240000 19009KT P6SM BKN130
     FM240600 19009KT P6SM BKN250
     FM241400 19007KT P6SM OVC150=



000
FTUS41 KBTV 231734
TAFBTV
TAF
KBTV 231734Z 2318/2418 19010KT P6SM BKN040 OVC120
     FM240000 19009KT P6SM SCT040 OVC130
     FM240600 19009KT P6SM BKN250
     FM241400 19007KT P6SM OVC150=



000
FTUS41 KBTV 231734
TAFSLK
TAF
KSLK 231734Z 2318/2418 23009KT P6SM -SHSN OVC016
     FM240000 23009KT 6SM -SN BR OVC015
     FM241500 21005KT P6SM OVC015=



000
FTUS41 KBTV 231734
TAFMPV
TAF
KMPV 231734Z 2318/2418 16006KT P6SM BKN025 BKN035
      TEMPO 2318/2322 SCT025 BKN035
     FM240000 21005KT P6SM SCT035 OVC120
     FM240600 20004KT P6SM BKN200
     FM241500 VRB03KT P6SM OVC100=



000
FTUS41 KBTV 231734
TAFMSS
TAF
KMSS 231734Z 2318/2418 22014G24KT P6SM SCT025 BKN035
      TEMPO 2318/2322 BKN025 BKN035
     FM240000 23014G20KT P6SM BKN025 OVC120
     FM240600 23010KT P6SM OVC025
     FM241400 21009KT P6SM OVC025=



000
FTUS41 KBTV 231504 AAA
TAFMPV
TAF AMD
KMPV 231504Z 2315/2412 VRB03KT 6SM BR BKN025 BKN035
      TEMPO 2315/2318 SCT025 BKN035
     FM231800 21006KT P6SM BKN035
     FM232000 21008KT P6SM SCT080
     FM240600 20006KT P6SM SCT060=



000
FTUS41 KBTV 231438 AAB
TAFBTV
TAF AMD
KBTV 231438Z 2315/2412 19010KT P6SM -SHSN OVC045
     FM231800 19010KT P6SM BKN050
     FM232200 19010G16KT P6SM BKN070=



000
FTUS41 KBTV 231401 AAA
TAFSLK
TAF AMD
KSLK 231401Z 2314/2412 24005KT 1SM -SN BR BKN018 OVC030
      TEMPO 2314/2318 2SM -SN BR SCT015 OVC025
     FM231800 23010G21KT P6SM BKN035
     FM232200 23011G20KT P6SM SCT090=



000
FTUS41 KBTV 231136
TAFSLK
TAF
KSLK 231136Z 2312/2412 22008KT 5SM -SN BKN035
      TEMPO 2312/2316 2SM -SN BR OVC009
     FM231600 23010G21KT P6SM BKN035
     FM232200 23011G20KT P6SM SCT090=



000
FTUS41 KBTV 231136
TAFMPV
TAF
KMPV 231136Z 2312/2412 19005KT P6SM BKN035
     FM231700 21006KT P6SM BKN050
     FM232000 21008KT P6SM SCT080
     FM240600 20006KT P6SM SCT060=



000
FTUS41 KBTV 231136
TAFMSS
TAF
KMSS 231136Z 2312/2412 22010KT P6SM BKN035
     FM231600 23014G22KT P6SM BKN040
     FM240800 21008G18KT P6SM BKN040=



000
FTUS41 KBTV 231136
TAFBTV
TAF
KBTV 231136Z 2312/2412 00000KT P6SM BKN035
      TEMPO 2312/2316 6SM -SN BR BKN025
     FM231600 18006KT P6SM BKN060
     FM232200 19010G16KT P6SM BKN070=



000
FTUS41 KBTV 230828 AAA
TAFSLK
TAF AMD
KSLK 230828Z 2308/2406 25008KT P6SM BKN040
      TEMPO 2308/2312 2SM -SN BR OVC015
     FM231700 23010G21KT P6SM BKN035
     FM232200 23011G20KT P6SM SCT090=



000
FTUS41 KBTV 230532
TAFMPV
TAF
KMPV 230532Z 2306/2406 00000KT P6SM BKN045
     FM230900 26005KT P6SM BKN035
     FM231700 21006KT P6SM BKN050
     FM232000 21008KT P6SM SCT080=



000
FTUS41 KBTV 230532
TAFBTV
TAF
KBTV 230532Z 2306/2406 00000KT P6SM BKN050
     FM231100 00000KT P6SM BKN035
     FM231600 18006KT P6SM BKN060
     FM232200 19010G16KT P6SM BKN070=



000
FTUS41 KBTV 230532
TAFSLK
TAF
KSLK 230532Z 2306/2406 25006KT P6SM BKN040
     FM230900 25008KT P6SM BKN030
     FM231700 23010G21KT P6SM BKN035
     FM232200 23011G20KT P6SM SCT090=



000
FTUS41 KBTV 230532
TAFMSS
TAF
KMSS 230532Z 2306/2406 23007KT P6SM BKN045
     FM231100 22010KT P6SM BKN035
     FM231600 23014G22KT P6SM BKN040=



000
FTUS41 KBTV 230345 AAA
TAFMPV
TAF AMD
KMPV 230345Z 2304/2324 VRB03KT P6SM SCT090
     FM230600 00000KT P6SM BKN045
     FM231800 21006KT P6SM BKN050
     FM232100 21006KT P6SM SCT080=



000
FTUS41 KBTV 230345 AAA
TAFBTV
TAF AMD
KBTV 230345Z 2304/2324 00000KT P6SM BKN050
     FM230800 00000KT P6SM BKN035
     FM231400 18006KT P6SM BKN060
     FM232000 19010G16KT P6SM BKN070=



000
FTUS41 KBTV 230345 AAA
TAFBTV
TAF AMD
KBTV 230345Z 2304/2324 00000KT P6SM BKN050
     FM230800 00000KT P6SM BKN035
     FM231400 18006KT P6SM BKN060
     FM232000 19010G16KT P6SM BKN070=



000
FTUS41 KBTV 230345 AAA
TAFMPV
TAF AMD
KMPV 230345Z 2304/2324 VRB03KT P6SM SCT090
     FM230600 00000KT P6SM BKN045
     FM231800 21006KT P6SM BKN050
     FM232100 21006KT P6SM SCT080=



    US Dept of Commerce
    National Oceanic and Atmospheric Administration
    National Weather Service
    1325 East West Highway
    Silver Spring, MD 20910
    Page Author: NWS Internet Services Team
Disclaimer
Information Quality
Credits
Glossary
Privacy Policy
Freedom of Information Act (FOIA)
About Us
Career Opportunities